sensor_id;sensor_type;location;lat;lon;timestamp;temperature;humidity
4578;DHT22;2301;47.354;8.528;2023-10-31T00:01:20;15.60;82.30
4578;DHT22;2301;47.354;8.528;2023-10-31T00:03:47;15.70;83.70
4578;DHT22;2301;47.354;8.528;2023-10-31T00:06:17;15.70;83.20
4578;DHT22;2301;47.354;8.528;2023-10-31T00:08:44;15.60;82.00
4578;DHT22;2301;47.354;8.528;2023-10-31T00:11:11;15.50;82.10
4578;DHT22;2301;47.354;8.528;2023-10-31T00:13:38;15.60;82.40
4578;DHT22;2301;47.354;8.528;2023-10-31T00:16:06;15.60;82.90
4578;DHT22;2301;47.354;8.528;2023-10-31T00:18:33;15.40;82.30
4578;DHT22;2301;47.354;8.528;2023-10-31T00:21:00;15.40;82.30
4578;DHT22;2301;47.354;8.528;2023-10-31T00:23:29;15.40;82.90
4578;DHT22;2301;47.354;8.528;2023-10-31T00:25:56;15.40;82.10
4578;DHT22;2301;47.354;8.528;2023-10-31T00:28:23;15.30;82.00
4578;DHT22;2301;47.354;8.528;2023-10-31T00:30:50;15.40;83.30
4578;DHT22;2301;47.354;8.528;2023-10-31T00:33:17;15.40;82.80
4578;DHT22;2301;47.354;8.528;2023-10-31T00:35:44;15.60;83.60
4578;DHT22;2301;47.354;8.528;2023-10-31T00:38:11;15.60;83.30
4578;DHT22;2301;47.354;8.528;2023-10-31T00:40:39;15.60;82.80
4578;DHT22;2301;47.354;8.528;2023-10-31T00:43:06;15.60;82.90
4578;DHT22;2301;47.354;8.528;2023-10-31T00:45:33;15.70;82.40
4578;DHT22;2301;47.354;8.528;2023-10-31T00:48:00;15.60;82.30
4578;DHT22;2301;47.354;8.528;2023-10-31T00:50:27;15.60;82.10
4578;DHT22;2301;47.354;8.528;2023-10-31T00:52:55;15.50;82.30
4578;DHT22;2301;47.354;8.528;2023-10-31T00:55:24;15.60;83.20
4578;DHT22;2301;47.354;8.528;2023-10-31T00:57:53;15.70;83.40
4578;DHT22;2301;47.354;8.528;2023-10-31T01:00:20;15.70;82.60
4578;DHT22;2301;47.354;8.528;2023-10-31T01:02:47;15.70;82.90
4578;DHT22;2301;47.354;8.528;2023-10-31T01:05:14;15.70;82.40
4578;DHT22;2301;47.354;8.528;2023-10-31T01:07:41;15.80;82.70
4578;DHT22;2301;47.354;8.528;2023-10-31T01:10:08;15.80;82.60
4578;DHT22;2301;47.354;8.528;2023-10-31T01:12:36;15.80;82.50
4578;DHT22;2301;47.354;8.528;2023-10-31T01:15:06;15.70;82.00
4578;DHT22;2301;47.354;8.528;2023-10-31T01:17:33;15.70;82.60
4578;DHT22;2301;47.354;8.528;2023-10-31T01:20:00;15.70;82.90
4578;DHT22;2301;47.354;8.528;2023-10-31T01:22:27;15.70;81.60
4578;DHT22;2301;47.354;8.528;2023-10-31T01:24:54;15.60;80.40
4578;DHT22;2301;47.354;8.528;2023-10-31T01:27:21;15.60;81.10
4578;DHT22;2301;47.354;8.528;2023-10-31T01:29:48;15.60;81.30
4578;DHT22;2301;47.354;8.528;2023-10-31T01:32:16;15.60;81.60
4578;DHT22;2301;47.354;8.528;2023-10-31T01:34:43;15.60;81.60
4578;DHT22;2301;47.354;8.528;2023-10-31T01:37:10;15.60;81.70
4578;DHT22;2301;47.354;8.528;2023-10-31T01:39:38;15.60;80.30
4578;DHT22;2301;47.354;8.528;2023-10-31T01:42:05;15.70;81.00
4578;DHT22;2301;47.354;8.528;2023-10-31T01:44:32;15.60;80.00
4578;DHT22;2301;47.354;8.528;2023-10-31T01:46:59;15.60;80.40
4578;DHT22;2301;47.354;8.528;2023-10-31T01:49:28;15.70;79.60
4578;DHT22;2301;47.354;8.528;2023-10-31T01:51:55;15.60;79.10
4578;DHT22;2301;47.354;8.528;2023-10-31T01:54:22;15.60;79.70
4578;DHT22;2301;47.354;8.528;2023-10-31T01:56:49;15.60;79.90
4578;DHT22;2301;47.354;8.528;2023-10-31T01:59:21;15.70;79.80
4578;DHT22;2301;47.354;8.528;2023-10-31T02:01:49;15.50;77.40
4578;DHT22;2301;47.354;8.528;2023-10-31T02:04:16;15.60;79.20
4578;DHT22;2301;47.354;8.528;2023-10-31T02:06:43;15.60;80.10
4578;DHT22;2301;47.354;8.528;2023-10-31T02:09:11;15.60;80.00
4578;DHT22;2301;47.354;8.528;2023-10-31T02:11:38;15.60;79.30
4578;DHT22;2301;47.354;8.528;2023-10-31T02:14:05;15.60;78.50
4578;DHT22;2301;47.354;8.528;2023-10-31T02:16:32;15.40;78.30
4578;DHT22;2301;47.354;8.528;2023-10-31T02:18:59;15.40;79.30
4578;DHT22;2301;47.354;8.528;2023-10-31T02:21:26;15.50;79.80
4578;DHT22;2301;47.354;8.528;2023-10-31T02:24:00;15.50;80.00
4578;DHT22;2301;47.354;8.528;2023-10-31T02:26:31;15.60;79.60
4578;DHT22;2301;47.354;8.528;2023-10-31T02:28:58;15.50;78.60
4578;DHT22;2301;47.354;8.528;2023-10-31T02:31:25;15.50;78.00
4578;DHT22;2301;47.354;8.528;2023-10-31T02:33:52;15.50;79.20
4578;DHT22;2301;47.354;8.528;2023-10-31T02:36:20;15.40;78.90
4578;DHT22;2301;47.354;8.528;2023-10-31T02:38:51;15.40;78.80
4578;DHT22;2301;47.354;8.528;2023-10-31T02:41:21;15.30;78.70
4578;DHT22;2301;47.354;8.528;2023-10-31T02:43:49;15.40;78.60
4578;DHT22;2301;47.354;8.528;2023-10-31T02:46:15;15.40;79.20
4578;DHT22;2301;47.354;8.528;2023-10-31T02:48:43;15.40;78.50
4578;DHT22;2301;47.354;8.528;2023-10-31T02:51:10;15.50;78.70
4578;DHT22;2301;47.354;8.528;2023-10-31T02:53:38;15.40;77.20
4578;DHT22;2301;47.354;8.528;2023-10-31T02:56:05;15.40;77.90
4578;DHT22;2301;47.354;8.528;2023-10-31T02:58:34;15.40;78.10
4578;DHT22;2301;47.354;8.528;2023-10-31T03:01:01;15.40;78.60
4578;DHT22;2301;47.354;8.528;2023-10-31T03:03:28;15.40;77.80
4578;DHT22;2301;47.354;8.528;2023-10-31T03:05:55;15.30;77.60
4578;DHT22;2301;47.354;8.528;2023-10-31T03:08:22;15.30;78.90
4578;DHT22;2301;47.354;8.528;2023-10-31T03:10:49;15.30;78.90
4578;DHT22;2301;47.354;8.528;2023-10-31T03:13:17;15.40;79.30
4578;DHT22;2301;47.354;8.528;2023-10-31T03:15:47;15.40;78.20
4578;DHT22;2301;47.354;8.528;2023-10-31T03:18:14;15.50;78.50
4578;DHT22;2301;47.354;8.528;2023-10-31T03:20:44;15.50;78.40
4578;DHT22;2301;47.354;8.528;2023-10-31T03:23:12;15.50;78.00
4578;DHT22;2301;47.354;8.528;2023-10-31T03:25:39;15.50;78.00
4578;DHT22;2301;47.354;8.528;2023-10-31T03:28:16;15.50;78.00
4578;DHT22;2301;47.354;8.528;2023-10-31T03:30:44;15.50;76.40
4578;DHT22;2301;47.354;8.528;2023-10-31T03:33:14;15.50;76.90
4578;DHT22;2301;47.354;8.528;2023-10-31T03:35:42;15.50;76.80
4578;DHT22;2301;47.354;8.528;2023-10-31T03:38:09;15.40;76.00
4578;DHT22;2301;47.354;8.528;2023-10-31T03:40:36;15.40;73.90
4578;DHT22;2301;47.354;8.528;2023-10-31T03:43:03;15.20;73.20
4578;DHT22;2301;47.354;8.528;2023-10-31T03:45:30;15.00;73.10
4578;DHT22;2301;47.354;8.528;2023-10-31T03:47:57;14.80;72.80
4578;DHT22;2301;47.354;8.528;2023-10-31T03:50:25;14.70;72.80
4578;DHT22;2301;47.354;8.528;2023-10-31T03:52:52;14.50;73.30
4578;DHT22;2301;47.354;8.528;2023-10-31T03:55:19;14.40;73.70
4578;DHT22;2301;47.354;8.528;2023-10-31T03:57:46;14.20;73.40
4578;DHT22;2301;47.354;8.528;2023-10-31T04:00:17;14.00;73.80
4578;DHT22;2301;47.354;8.528;2023-10-31T04:02:47;14.00;74.30
4578;DHT22;2301;47.354;8.528;2023-10-31T04:05:15;13.90;74.50
4578;DHT22;2301;47.354;8.528;2023-10-31T04:07:45;13.70;74.60
4578;DHT22;2301;47.354;8.528;2023-10-31T04:10:12;13.70;74.80
4578;DHT22;2301;47.354;8.528;2023-10-31T04:12:40;13.60;75.10
4578;DHT22;2301;47.354;8.528;2023-10-31T04:15:08;13.50;75.40
4578;DHT22;2301;47.354;8.528;2023-10-31T04:17:35;13.40;75.90
4578;DHT22;2301;47.354;8.528;2023-10-31T04:20:02;13.40;76.20
4578;DHT22;2301;47.354;8.528;2023-10-31T04:22:31;13.40;76.10
4578;DHT22;2301;47.354;8.528;2023-10-31T04:25:05;13.40;76.10
4578;DHT22;2301;47.354;8.528;2023-10-31T04:27:33;13.30;75.50
4578;DHT22;2301;47.354;8.528;2023-10-31T04:30:01;13.20;76.00
4578;DHT22;2301;47.354;8.528;2023-10-31T04:32:28;13.20;76.30
4578;DHT22;2301;47.354;8.528;2023-10-31T04:34:55;13.20;76.30
4578;DHT22;2301;47.354;8.528;2023-10-31T04:37:22;13.20;76.50
4578;DHT22;2301;47.354;8.528;2023-10-31T04:39:51;13.10;76.30
4578;DHT22;2301;47.354;8.528;2023-10-31T04:42:24;13.10;76.00
4578;DHT22;2301;47.354;8.528;2023-10-31T04:44:54;13.10;75.80
4578;DHT22;2301;47.354;8.528;2023-10-31T04:47:21;13.00;75.90
4578;DHT22;2301;47.354;8.528;2023-10-31T04:49:48;13.00;75.90
4578;DHT22;2301;47.354;8.528;2023-10-31T04:52:16;13.00;76.00
4578;DHT22;2301;47.354;8.528;2023-10-31T04:54:45;13.00;76.00
4578;DHT22;2301;47.354;8.528;2023-10-31T04:57:12;13.00;76.20
4578;DHT22;2301;47.354;8.528;2023-10-31T04:59:40;12.90;76.20
4578;DHT22;2301;47.354;8.528;2023-10-31T05:02:07;12.90;76.30
4578;DHT22;2301;47.354;8.528;2023-10-31T05:04:38;12.80;76.00
4578;DHT22;2301;47.354;8.528;2023-10-31T05:07:05;12.90;76.00
4578;DHT22;2301;47.354;8.528;2023-10-31T05:09:32;12.80;76.00
4578;DHT22;2301;47.354;8.528;2023-10-31T05:11:59;12.80;76.30
4578;DHT22;2301;47.354;8.528;2023-10-31T05:14:26;12.80;76.10
4578;DHT22;2301;47.354;8.528;2023-10-31T05:16:54;12.80;75.70
4578;DHT22;2301;47.354;8.528;2023-10-31T05:19:21;12.80;75.80
4578;DHT22;2301;47.354;8.528;2023-10-31T05:21:48;12.80;76.10
4578;DHT22;2301;47.354;8.528;2023-10-31T05:24:15;12.80;75.90
4578;DHT22;2301;47.354;8.528;2023-10-31T05:26:42;12.80;76.30
4578;DHT22;2301;47.354;8.528;2023-10-31T05:29:09;12.80;76.80
4578;DHT22;2301;47.354;8.528;2023-10-31T05:31:36;12.70;76.50
4578;DHT22;2301;47.354;8.528;2023-10-31T05:34:04;12.70;76.50
4578;DHT22;2301;47.354;8.528;2023-10-31T05:36:32;12.70;76.60
4578;DHT22;2301;47.354;8.528;2023-10-31T05:38:59;12.70;76.10
4578;DHT22;2301;47.354;8.528;2023-10-31T05:41:26;12.70;76.00
4578;DHT22;2301;47.354;8.528;2023-10-31T05:43:53;12.70;75.90
4578;DHT22;2301;47.354;8.528;2023-10-31T05:46:20;12.80;76.00
4578;DHT22;2301;47.354;8.528;2023-10-31T05:48:47;12.70;76.50
4578;DHT22;2301;47.354;8.528;2023-10-31T05:51:17;12.70;76.80
4578;DHT22;2301;47.354;8.528;2023-10-31T05:53:47;12.70;76.80
4578;DHT22;2301;47.354;8.528;2023-10-31T05:56:15;12.70;77.20
4578;DHT22;2301;47.354;8.528;2023-10-31T05:58:42;12.70;77.40
4578;DHT22;2301;47.354;8.528;2023-10-31T06:01:09;12.70;77.10
4578;DHT22;2301;47.354;8.528;2023-10-31T06:03:36;12.70;77.20
4578;DHT22;2301;47.354;8.528;2023-10-31T06:06:04;12.60;77.20
4578;DHT22;2301;47.354;8.528;2023-10-31T06:08:33;12.70;77.50
4578;DHT22;2301;47.354;8.528;2023-10-31T06:11:00;12.70;77.10
4578;DHT22;2301;47.354;8.528;2023-10-31T06:13:27;12.60;76.20
4578;DHT22;2301;47.354;8.528;2023-10-31T06:15:57;12.60;76.00
4578;DHT22;2301;47.354;8.528;2023-10-31T06:18:24;12.60;76.40
4578;DHT22;2301;47.354;8.528;2023-10-31T06:20:52;12.60;76.90
4578;DHT22;2301;47.354;8.528;2023-10-31T06:23:19;12.60;77.30
4578;DHT22;2301;47.354;8.528;2023-10-31T06:25:47;12.60;77.60
4578;DHT22;2301;47.354;8.528;2023-10-31T06:28:14;12.70;77.80
4578;DHT22;2301;47.354;8.528;2023-10-31T06:30:41;12.70;77.50
4578;DHT22;2301;47.354;8.528;2023-10-31T06:33:08;12.70;77.30
4578;DHT22;2301;47.354;8.528;2023-10-31T06:35:36;12.70;77.60
4578;DHT22;2301;47.354;8.528;2023-10-31T06:38:03;12.70;77.10
4578;DHT22;2301;47.354;8.528;2023-10-31T06:40:30;12.70;77.40
4578;DHT22;2301;47.354;8.528;2023-10-31T06:42:59;12.70;77.80
4578;DHT22;2301;47.354;8.528;2023-10-31T06:45:26;12.70;78.60
4578;DHT22;2301;47.354;8.528;2023-10-31T06:47:53;12.70;79.30
4578;DHT22;2301;47.354;8.528;2023-10-31T06:50:20;12.60;80.50
4578;DHT22;2301;47.354;8.528;2023-10-31T06:52:48;12.60;79.80
4578;DHT22;2301;47.354;8.528;2023-10-31T06:55:15;12.60;79.70
4578;DHT22;2301;47.354;8.528;2023-10-31T06:57:42;13.00;85.30
4578;DHT22;2301;47.354;8.528;2023-10-31T07:00:11;13.00;81.70
4578;DHT22;2301;47.354;8.528;2023-10-31T07:02:39;13.00;80.60
4578;DHT22;2301;47.354;8.528;2023-10-31T07:05:06;13.00;79.80
4578;DHT22;2301;47.354;8.528;2023-10-31T07:07:33;13.00;80.00
4578;DHT22;2301;47.354;8.528;2023-10-31T07:10:00;13.00;80.40
4578;DHT22;2301;47.354;8.528;2023-10-31T07:12:28;12.90;80.40
4578;DHT22;2301;47.354;8.528;2023-10-31T07:14:59;12.90;80.60
4578;DHT22;2301;47.354;8.528;2023-10-31T07:17:30;12.90;80.30
4578;DHT22;2301;47.354;8.528;2023-10-31T07:20:00;12.90;80.30
4578;DHT22;2301;47.354;8.528;2023-10-31T07:22:27;12.90;80.60
4578;DHT22;2301;47.354;8.528;2023-10-31T07:24:54;12.90;80.80
4578;DHT22;2301;47.354;8.528;2023-10-31T07:27:22;12.80;80.50
4578;DHT22;2301;47.354;8.528;2023-10-31T07:29:49;12.80;81.30
4578;DHT22;2301;47.354;8.528;2023-10-31T07:32:16;12.80;81.80
4578;DHT22;2301;47.354;8.528;2023-10-31T07:34:45;12.80;80.90
4578;DHT22;2301;47.354;8.528;2023-10-31T07:37:12;12.80;80.50
4578;DHT22;2301;47.354;8.528;2023-10-31T07:39:38;12.80;80.50
4578;DHT22;2301;47.354;8.528;2023-10-31T07:42:06;12.70;81.20
4578;DHT22;2301;47.354;8.528;2023-10-31T07:44:33;12.80;81.40
4578;DHT22;2301;47.354;8.528;2023-10-31T07:47:00;12.80;81.30
4578;DHT22;2301;47.354;8.528;2023-10-31T07:49:27;12.80;81.20
4578;DHT22;2301;47.354;8.528;2023-10-31T07:51:56;12.80;80.50
4578;DHT22;2301;47.354;8.528;2023-10-31T07:54:23;12.80;80.20
4578;DHT22;2301;47.354;8.528;2023-10-31T07:56:50;12.80;80.90
4578;DHT22;2301;47.354;8.528;2023-10-31T07:59:17;12.70;80.70
4578;DHT22;2301;47.354;8.528;2023-10-31T08:01:44;12.70;80.20
4578;DHT22;2301;47.354;8.528;2023-10-31T08:04:11;12.80;81.00
4578;DHT22;2301;47.354;8.528;2023-10-31T08:06:40;12.80;81.30
4578;DHT22;2301;47.354;8.528;2023-10-31T08:09:08;12.70;81.50
4578;DHT22;2301;47.354;8.528;2023-10-31T08:11:36;12.70;81.60
4578;DHT22;2301;47.354;8.528;2023-10-31T08:14:03;12.70;81.10
4578;DHT22;2301;47.354;8.528;2023-10-31T08:16:29;12.70;81.20
4578;DHT22;2301;47.354;8.528;2023-10-31T08:18:56;12.70;81.00
4578;DHT22;2301;47.354;8.528;2023-10-31T08:21:23;12.70;80.60
4578;DHT22;2301;47.354;8.528;2023-10-31T08:23:53;12.70;80.40
4578;DHT22;2301;47.354;8.528;2023-10-31T08:26:22;12.80;80.90
4578;DHT22;2301;47.354;8.528;2023-10-31T08:28:49;12.80;80.90
4578;DHT22;2301;47.354;8.528;2023-10-31T08:31:17;12.80;80.50
4578;DHT22;2301;47.354;8.528;2023-10-31T08:33:45;12.80;80.20
4578;DHT22;2301;47.354;8.528;2023-10-31T08:36:12;12.80;80.40
4578;DHT22;2301;47.354;8.528;2023-10-31T08:38:39;12.80;80.80
4578;DHT22;2301;47.354;8.528;2023-10-31T08:41:06;12.80;81.10
4578;DHT22;2301;47.354;8.528;2023-10-31T08:43:34;12.80;80.80
4578;DHT22;2301;47.354;8.528;2023-10-31T08:46:02;12.80;80.30
4578;DHT22;2301;47.354;8.528;2023-10-31T08:48:29;13.20;87.40
4578;DHT22;2301;47.354;8.528;2023-10-31T08:50:55;13.20;82.00
4578;DHT22;2301;47.354;8.528;2023-10-31T08:53:23;13.20;80.40
4578;DHT22;2301;47.354;8.528;2023-10-31T08:55:50;13.20;80.60
4578;DHT22;2301;47.354;8.528;2023-10-31T08:58:17;13.20;80.90
4578;DHT22;2301;47.354;8.528;2023-10-31T09:00:47;13.20;80.40
4578;DHT22;2301;47.354;8.528;2023-10-31T09:03:18;13.20;80.10
4578;DHT22;2301;47.354;8.528;2023-10-31T09:05:48;13.20;80.00
4578;DHT22;2301;47.354;8.528;2023-10-31T09:08:15;13.20;80.00
4578;DHT22;2301;47.354;8.528;2023-10-31T09:10:43;13.20;79.50
4578;DHT22;2301;47.354;8.528;2023-10-31T09:13:14;13.20;79.20
4578;DHT22;2301;47.354;8.528;2023-10-31T09:15:41;13.20;79.60
4578;DHT22;2301;47.354;8.528;2023-10-31T09:18:09;13.20;79.60
4578;DHT22;2301;47.354;8.528;2023-10-31T09:20:36;13.30;79.70
4578;DHT22;2301;47.354;8.528;2023-10-31T09:23:03;13.30;79.60
4578;DHT22;2301;47.354;8.528;2023-10-31T09:25:30;13.30;79.50
4578;DHT22;2301;47.354;8.528;2023-10-31T09:27:58;13.40;80.20
4578;DHT22;2301;47.354;8.528;2023-10-31T09:30:25;13.40;78.10
4578;DHT22;2301;47.354;8.528;2023-10-31T09:32:52;13.40;78.10
4578;DHT22;2301;47.354;8.528;2023-10-31T09:35:21;13.50;79.10
4578;DHT22;2301;47.354;8.528;2023-10-31T09:37:48;13.50;79.30
4578;DHT22;2301;47.354;8.528;2023-10-31T09:40:15;13.50;79.20
4578;DHT22;2301;47.354;8.528;2023-10-31T09:42:44;13.50;78.90
4578;DHT22;2301;47.354;8.528;2023-10-31T09:45:12;13.60;79.30
4578;DHT22;2301;47.354;8.528;2023-10-31T09:47:39;13.70;78.80
4578;DHT22;2301;47.354;8.528;2023-10-31T09:50:07;13.70;77.80
4578;DHT22;2301;47.354;8.528;2023-10-31T09:52:37;13.70;77.70
4578;DHT22;2301;47.354;8.528;2023-10-31T09:55:05;13.80;78.10
4578;DHT22;2301;47.354;8.528;2023-10-31T09:57:33;13.80;77.50
4578;DHT22;2301;47.354;8.528;2023-10-31T10:00:00;13.80;77.80
4578;DHT22;2301;47.354;8.528;2023-10-31T10:02:27;13.90;78.10
4578;DHT22;2301;47.354;8.528;2023-10-31T10:04:54;14.00;77.60
4578;DHT22;2301;47.354;8.528;2023-10-31T10:07:21;14.00;76.90
4578;DHT22;2301;47.354;8.528;2023-10-31T10:09:49;14.00;76.50
4578;DHT22;2301;47.354;8.528;2023-10-31T10:12:16;14.10;76.50
4578;DHT22;2301;47.354;8.528;2023-10-31T10:14:45;14.10;77.00
4578;DHT22;2301;47.354;8.528;2023-10-31T10:17:16;14.20;77.60
4578;DHT22;2301;47.354;8.528;2023-10-31T10:19:43;14.20;76.60
4578;DHT22;2301;47.354;8.528;2023-10-31T10:22:10;14.30;77.30
4578;DHT22;2301;47.354;8.528;2023-10-31T10:24:42;14.40;77.10
4578;DHT22;2301;47.354;8.528;2023-10-31T10:27:11;14.50;77.60
4578;DHT22;2301;47.354;8.528;2023-10-31T10:29:38;14.60;76.50
4578;DHT22;2301;47.354;8.528;2023-10-31T10:32:07;14.70;75.50
4578;DHT22;2301;47.354;8.528;2023-10-31T10:34:35;14.70;75.70
4578;DHT22;2301;47.354;8.528;2023-10-31T10:37:05;14.70;75.20
4578;DHT22;2301;47.354;8.528;2023-10-31T10:39:33;14.70;74.80
4578;DHT22;2301;47.354;8.528;2023-10-31T10:42:01;14.80;74.60
4578;DHT22;2301;47.354;8.528;2023-10-31T10:44:34;14.80;74.80
4578;DHT22;2301;47.354;8.528;2023-10-31T10:47:05;14.90;74.70
4578;DHT22;2301;47.354;8.528;2023-10-31T10:49:34;14.80;73.40
4578;DHT22;2301;47.354;8.528;2023-10-31T10:52:12;14.80;73.20
4578;DHT22;2301;47.354;8.528;2023-10-31T10:54:44;14.70;73.50
4578;DHT22;2301;47.354;8.528;2023-10-31T10:57:15;14.70;74.10
4578;DHT22;2301;47.354;8.528;2023-10-31T10:59:49;14.80;74.70
4578;DHT22;2301;47.354;8.528;2023-10-31T11:02:18;14.80;74.80
4578;DHT22;2301;47.354;8.528;2023-10-31T11:04:45;14.80;74.20
4578;DHT22;2301;47.354;8.528;2023-10-31T11:07:15;14.70;74.10
4578;DHT22;2301;47.354;8.528;2023-10-31T11:09:43;14.70;73.70
4578;DHT22;2301;47.354;8.528;2023-10-31T11:12:12;14.60;73.80
4578;DHT22;2301;47.354;8.528;2023-10-31T11:14:40;14.70;74.30
4578;DHT22;2301;47.354;8.528;2023-10-31T11:17:16;14.70;74.50
4578;DHT22;2301;47.354;8.528;2023-10-31T11:19:49;14.80;74.40
4578;DHT22;2301;47.354;8.528;2023-10-31T11:22:17;14.80;74.10
4578;DHT22;2301;47.354;8.528;2023-10-31T11:24:45;14.80;73.80
4578;DHT22;2301;47.354;8.528;2023-10-31T11:27:12;14.70;73.40
4578;DHT22;2301;47.354;8.528;2023-10-31T11:29:39;14.80;74.00
4578;DHT22;2301;47.354;8.528;2023-10-31T11:32:08;14.80;74.00
4578;DHT22;2301;47.354;8.528;2023-10-31T11:34:38;14.80;73.90
4578;DHT22;2301;47.354;8.528;2023-10-31T11:37:25;14.80;73.10
4578;DHT22;2301;47.354;8.528;2023-10-31T11:40:16;14.80;72.90
4578;DHT22;2301;47.354;8.528;2023-10-31T11:42:42;14.80;72.60
4578;DHT22;2301;47.354;8.528;2023-10-31T11:45:09;14.80;72.60
4578;DHT22;2301;47.354;8.528;2023-10-31T11:47:46;14.80;72.30
4578;DHT22;2301;47.354;8.528;2023-10-31T11:50:15;14.80;72.60
4578;DHT22;2301;47.354;8.528;2023-10-31T11:52:42;14.80;73.10
4578;DHT22;2301;47.354;8.528;2023-10-31T11:55:10;14.80;73.40
4578;DHT22;2301;47.354;8.528;2023-10-31T11:57:38;14.80;74.20
4578;DHT22;2301;47.354;8.528;2023-10-31T12:00:06;14.80;73.70
4578;DHT22;2301;47.354;8.528;2023-10-31T12:02:37;14.80;73.60
4578;DHT22;2301;47.354;8.528;2023-10-31T12:05:10;14.70;73.40
4578;DHT22;2301;47.354;8.528;2023-10-31T12:07:46;14.70;73.30
4578;DHT22;2301;47.354;8.528;2023-10-31T12:10:21;14.60;74.10
4578;DHT22;2301;47.354;8.528;2023-10-31T12:12:49;14.60;74.70
4578;DHT22;2301;47.354;8.528;2023-10-31T12:15:16;14.60;74.90
4578;DHT22;2301;47.354;8.528;2023-10-31T12:17:43;14.60;75.00
4578;DHT22;2301;47.354;8.528;2023-10-31T12:20:11;14.60;75.70
4578;DHT22;2301;47.354;8.528;2023-10-31T12:22:38;14.60;74.70
4578;DHT22;2301;47.354;8.528;2023-10-31T12:25:09;14.60;74.30
4578;DHT22;2301;47.354;8.528;2023-10-31T12:27:43;14.60;74.10
4578;DHT22;2301;47.354;8.528;2023-10-31T12:30:11;14.70;74.20
4578;DHT22;2301;47.354;8.528;2023-10-31T12:32:40;14.70;74.20
4578;DHT22;2301;47.354;8.528;2023-10-31T12:35:08;14.70;74.20
4578;DHT22;2301;47.354;8.528;2023-10-31T12:37:36;14.60;74.20
4578;DHT22;2301;47.354;8.528;2023-10-31T12:40:04;14.60;74.20
4578;DHT22;2301;47.354;8.528;2023-10-31T12:42:35;14.50;74.20
4578;DHT22;2301;47.354;8.528;2023-10-31T12:45:04;14.60;74.60
4578;DHT22;2301;47.354;8.528;2023-10-31T12:47:31;14.50;74.70
4578;DHT22;2301;47.354;8.528;2023-10-31T12:50:08;14.40;74.50
4578;DHT22;2301;47.354;8.528;2023-10-31T12:52:49;14.40;74.40
4578;DHT22;2301;47.354;8.528;2023-10-31T12:55:17;14.40;74.80
4578;DHT22;2301;47.354;8.528;2023-10-31T12:57:46;14.40;74.70
4578;DHT22;2301;47.354;8.528;2023-10-31T13:00:15;14.50;74.50
4578;DHT22;2301;47.354;8.528;2023-10-31T13:02:44;14.50;75.00
4578;DHT22;2301;47.354;8.528;2023-10-31T13:05:13;14.50;74.60
4578;DHT22;2301;47.354;8.528;2023-10-31T13:07:47;14.50;74.30
4578;DHT22;2301;47.354;8.528;2023-10-31T13:10:16;14.50;74.20
4578;DHT22;2301;47.354;8.528;2023-10-31T13:12:45;14.50;74.30
4578;DHT22;2301;47.354;8.528;2023-10-31T13:15:13;14.50;74.00
4578;DHT22;2301;47.354;8.528;2023-10-31T13:17:42;14.60;74.30
4578;DHT22;2301;47.354;8.528;2023-10-31T13:20:13;14.60;74.80
4578;DHT22;2301;47.354;8.528;2023-10-31T13:22:43;14.60;74.30
4578;DHT22;2301;47.354;8.528;2023-10-31T13:25:11;14.60;74.00
4578;DHT22;2301;47.354;8.528;2023-10-31T13:27:39;14.60;73.60
4578;DHT22;2301;47.354;8.528;2023-10-31T13:30:11;14.60;73.90
4578;DHT22;2301;47.354;8.528;2023-10-31T13:32:39;14.60;73.90
4578;DHT22;2301;47.354;8.528;2023-10-31T13:35:07;14.60;73.90
4578;DHT22;2301;47.354;8.528;2023-10-31T13:37:36;14.60;73.90
4578;DHT22;2301;47.354;8.528;2023-10-31T13:40:03;14.60;73.90
4578;DHT22;2301;47.354;8.528;2023-10-31T13:42:31;14.50;73.50
4578;DHT22;2301;47.354;8.528;2023-10-31T13:44:58;14.50;73.60
4578;DHT22;2301;47.354;8.528;2023-10-31T13:47:26;14.60;74.10
4578;DHT22;2301;47.354;8.528;2023-10-31T13:49:55;14.50;73.60
4578;DHT22;2301;47.354;8.528;2023-10-31T13:52:22;14.40;73.80
4578;DHT22;2301;47.354;8.528;2023-10-31T13:54:50;14.40;73.90
4578;DHT22;2301;47.354;8.528;2023-10-31T13:57:19;14.50;74.30
4578;DHT22;2301;47.354;8.528;2023-10-31T13:59:46;14.40;74.20
4578;DHT22;2301;47.354;8.528;2023-10-31T14:02:13;14.40;74.20
4578;DHT22;2301;47.354;8.528;2023-10-31T14:04:41;14.40;74.20
4578;DHT22;2301;47.354;8.528;2023-10-31T14:07:08;14.40;73.60
4578;DHT22;2301;47.354;8.528;2023-10-31T14:09:35;14.30;74.20
4578;DHT22;2301;47.354;8.528;2023-10-31T14:12:03;14.30;73.80
4578;DHT22;2301;47.354;8.528;2023-10-31T14:14:30;14.30;74.20
4578;DHT22;2301;47.354;8.528;2023-10-31T14:16:57;14.30;74.70
4578;DHT22;2301;47.354;8.528;2023-10-31T14:19:27;14.20;73.90
4578;DHT22;2301;47.354;8.528;2023-10-31T14:21:55;14.20;72.10
4578;DHT22;2301;47.354;8.528;2023-10-31T14:24:22;14.20;72.30
4578;DHT22;2301;47.354;8.528;2023-10-31T14:26:49;14.10;72.10
4578;DHT22;2301;47.354;8.528;2023-10-31T14:29:16;14.10;70.40
4578;DHT22;2301;47.354;8.528;2023-10-31T14:31:43;14.00;71.10
4578;DHT22;2301;47.354;8.528;2023-10-31T14:34:11;14.00;71.20
4578;DHT22;2301;47.354;8.528;2023-10-31T14:36:38;14.00;71.00
4578;DHT22;2301;47.354;8.528;2023-10-31T14:39:06;14.00;71.00
4578;DHT22;2301;47.354;8.528;2023-10-31T14:41:35;14.00;71.30
4578;DHT22;2301;47.354;8.528;2023-10-31T14:44:02;14.00;71.60
4578;DHT22;2301;47.354;8.528;2023-10-31T14:46:30;13.90;71.30
4578;DHT22;2301;47.354;8.528;2023-10-31T14:48:57;13.90;71.20
4578;DHT22;2301;47.354;8.528;2023-10-31T14:51:25;14.00;71.60
4578;DHT22;2301;47.354;8.528;2023-10-31T14:53:52;14.00;71.70
4578;DHT22;2301;47.354;8.528;2023-10-31T14:56:20;13.90;72.00
4578;DHT22;2301;47.354;8.528;2023-10-31T14:58:48;13.90;72.40
4578;DHT22;2301;47.354;8.528;2023-10-31T15:01:15;13.90;72.90
4578;DHT22;2301;47.354;8.528;2023-10-31T15:03:42;13.90;73.10
4578;DHT22;2301;47.354;8.528;2023-10-31T15:06:09;13.90;73.60
4578;DHT22;2301;47.354;8.528;2023-10-31T15:08:36;13.80;75.00
4578;DHT22;2301;47.354;8.528;2023-10-31T15:11:04;13.80;74.70
4578;DHT22;2301;47.354;8.528;2023-10-31T15:13:33;13.80;74.70
4578;DHT22;2301;47.354;8.528;2023-10-31T15:16:00;13.80;74.90
4578;DHT22;2301;47.354;8.528;2023-10-31T15:18:28;13.70;75.20
4578;DHT22;2301;47.354;8.528;2023-10-31T15:20:55;13.70;75.20
4578;DHT22;2301;47.354;8.528;2023-10-31T15:23:23;13.70;75.50
4578;DHT22;2301;47.354;8.528;2023-10-31T15:25:51;13.60;76.30
4578;DHT22;2301;47.354;8.528;2023-10-31T15:28:18;13.50;76.10
4578;DHT22;2301;47.354;8.528;2023-10-31T15:30:47;13.50;76.40
4578;DHT22;2301;47.354;8.528;2023-10-31T15:33:15;13.50;76.80
4578;DHT22;2301;47.354;8.528;2023-10-31T15:35:43;13.50;77.00
4578;DHT22;2301;47.354;8.528;2023-10-31T15:38:10;13.50;77.30
4578;DHT22;2301;47.354;8.528;2023-10-31T15:40:37;13.40;77.70
4578;DHT22;2301;47.354;8.528;2023-10-31T15:43:04;13.40;77.80
4578;DHT22;2301;47.354;8.528;2023-10-31T15:45:31;13.50;77.80
4578;DHT22;2301;47.354;8.528;2023-10-31T15:48:07;13.50;78.10
4578;DHT22;2301;47.354;8.528;2023-10-31T15:50:35;13.50;78.10
4578;DHT22;2301;47.354;8.528;2023-10-31T15:53:05;13.50;78.50
4578;DHT22;2301;47.354;8.528;2023-10-31T15:55:34;13.40;78.40
4578;DHT22;2301;47.354;8.528;2023-10-31T15:58:01;13.40;78.70
4578;DHT22;2301;47.354;8.528;2023-10-31T16:00:28;13.40;79.10
4578;DHT22;2301;47.354;8.528;2023-10-31T16:02:55;13.40;79.80
4578;DHT22;2301;47.354;8.528;2023-10-31T16:05:23;13.40;79.90
4578;DHT22;2301;47.354;8.528;2023-10-31T16:07:51;13.40;80.10